sensor_id;sensor_type;location;lat;lon;timestamp;temperature;humidity
46758;DHT22;32509;47.750;-3.396;2023-06-22T00:00:58;19.90;99.90
46758;DHT22;32509;47.750;-3.396;2023-06-22T00:03:25;19.80;99.90
46758;DHT22;32509;47.750;-3.396;2023-06-22T00:05:51;19.80;99.90
46758;DHT22;32509;47.750;-3.396;2023-06-22T00:08:18;19.80;99.90
46758;DHT22;32509;47.750;-3.396;2023-06-22T00:10:44;19.80;99.90
46758;DHT22;32509;47.750;-3.396;2023-06-22T00:13:11;19.80;99.90
46758;DHT22;32509;47.750;-3.396;2023-06-22T00:15:38;19.80;99.90
46758;DHT22;32509;47.750;-3.396;2023-06-22T00:18:08;19.70;99.90
46758;DHT22;32509;47.750;-3.396;2023-06-22T00:20:34;19.70;99.90
46758;DHT22;32509;47.750;-3.396;2023-06-22T00:23:03;19.70;99.90
46758;DHT22;32509;47.750;-3.396;2023-06-22T00:25:37;19.70;99.90
46758;DHT22;32509;47.750;-3.396;2023-06-22T00:28:05;19.70;99.90
46758;DHT22;32509;47.750;-3.396;2023-06-22T00:30:32;19.70;99.90
46758;DHT22;32509;47.750;-3.396;2023-06-22T00:32:58;19.70;99.90
46758;DHT22;32509;47.750;-3.396;2023-06-22T00:35:25;19.70;99.90
46758;DHT22;32509;47.750;-3.396;2023-06-22T00:37:58;19.70;99.90
46758;DHT22;32509;47.750;-3.396;2023-06-22T00:40:30;19.60;99.90
46758;DHT22;32509;47.750;-3.396;2023-06-22T00:42:56;19.60;99.90
46758;DHT22;32509;47.750;-3.396;2023-06-22T00:45:22;19.60;99.90
46758;DHT22;32509;47.750;-3.396;2023-06-22T00:47:53;19.60;99.90
46758;DHT22;32509;47.750;-3.396;2023-06-22T00:50:23;19.60;99.90
46758;DHT22;32509;47.750;-3.396;2023-06-22T00:52:56;19.60;99.90
46758;DHT22;32509;47.750;-3.396;2023-06-22T00:55:23;19.60;99.90
46758;DHT22;32509;47.750;-3.396;2023-06-22T00:57:49;19.50;99.90
46758;DHT22;32509;47.750;-3.396;2023-06-22T01:00:16;19.50;99.90
46758;DHT22;32509;47.750;-3.396;2023-06-22T01:02:46;19.60;99.90
46758;DHT22;32509;47.750;-3.396;2023-06-22T01:05:17;19.50;99.90
46758;DHT22;32509;47.750;-3.396;2023-06-22T01:16:25;19.50;99.90
46758;DHT22;32509;47.750;-3.396;2023-06-22T01:18:54;19.50;99.90
46758;DHT22;32509;47.750;-3.396;2023-06-22T01:21:23;19.50;99.90
46758;DHT22;32509;47.750;-3.396;2023-06-22T01:24:18;19.50;99.90
46758;DHT22;32509;47.750;-3.396;2023-06-22T01:29:52;19.40;99.90
46758;DHT22;32509;47.750;-3.396;2023-06-22T01:32:33;19.40;99.90
46758;DHT22;32509;47.750;-3.396;2023-06-22T01:35:01;19.40;99.90
46758;DHT22;32509;47.750;-3.396;2023-06-22T01:37:31;19.40;99.90
46758;DHT22;32509;47.750;-3.396;2023-06-22T01:39:58;19.40;99.90
46758;DHT22;32509;47.750;-3.396;2023-06-22T01:42:25;19.30;99.90
46758;DHT22;32509;47.750;-3.396;2023-06-22T01:44:53;19.30;99.90
46758;DHT22;32509;47.750;-3.396;2023-06-22T01:47:20;19.30;99.90
46758;DHT22;32509;47.750;-3.396;2023-06-22T01:49:46;19.30;99.90
46758;DHT22;32509;47.750;-3.396;2023-06-22T01:52:15;19.30;99.90
46758;DHT22;32509;47.750;-3.396;2023-06-22T01:54:41;19.30;99.90
46758;DHT22;32509;47.750;-3.396;2023-06-22T01:57:07;19.30;99.90
46758;DHT22;32509;47.750;-3.396;2023-06-22T01:59:44;19.30;99.90
46758;DHT22;32509;47.750;-3.396;2023-06-22T02:02:15;19.30;99.90
46758;DHT22;32509;47.750;-3.396;2023-06-22T02:05:16;19.30;99.90
46758;DHT22;32509;47.750;-3.396;2023-06-22T02:07:55;19.20;99.90
46758;DHT22;32509;47.750;-3.396;2023-06-22T02:10:24;19.20;99.90
46758;DHT22;32509;47.750;-3.396;2023-06-22T02:12:51;19.20;99.90
46758;DHT22;32509;47.750;-3.396;2023-06-22T02:15:18;19.20;99.90
46758;DHT22;32509;47.750;-3.396;2023-06-22T02:17:44;19.20;99.90
46758;DHT22;32509;47.750;-3.396;2023-06-22T02:20:19;19.20;99.90
46758;DHT22;32509;47.750;-3.396;2023-06-22T02:22:45;19.10;99.90
46758;DHT22;32509;47.750;-3.396;2023-06-22T02:25:11;19.10;99.90
46758;DHT22;32509;47.750;-3.396;2023-06-22T02:27:37;19.10;99.90
46758;DHT22;32509;47.750;-3.396;2023-06-22T02:30:09;19.10;99.90
46758;DHT22;32509;47.750;-3.396;2023-06-22T02:32:35;19.10;99.90
46758;DHT22;32509;47.750;-3.396;2023-06-22T02:35:02;19.10;99.90
46758;DHT22;32509;47.750;-3.396;2023-06-22T02:37:32;19.10;99.90
46758;DHT22;32509;47.750;-3.396;2023-06-22T02:39:58;19.10;99.90
46758;DHT22;32509;47.750;-3.396;2023-06-22T02:42:24;19.10;99.90
46758;DHT22;32509;47.750;-3.396;2023-06-22T02:44:49;19.10;99.90
46758;DHT22;32509;47.750;-3.396;2023-06-22T02:47:15;19.00;99.90
46758;DHT22;32509;47.750;-3.396;2023-06-22T02:49:41;19.00;99.90
46758;DHT22;32509;47.750;-3.396;2023-06-22T02:52:07;19.00;99.90
46758;DHT22;32509;47.750;-3.396;2023-06-22T02:54:33;19.00;99.90
46758;DHT22;32509;47.750;-3.396;2023-06-22T02:56:59;19.00;99.90
46758;DHT22;32509;47.750;-3.396;2023-06-22T02:59:28;19.00;99.90
46758;DHT22;32509;47.750;-3.396;2023-06-22T03:01:54;18.90;99.90
46758;DHT22;32509;47.750;-3.396;2023-06-22T03:04:19;18.90;99.90
46758;DHT22;32509;47.750;-3.396;2023-06-22T03:06:45;18.90;99.90
46758;DHT22;32509;47.750;-3.396;2023-06-22T03:09:16;18.90;99.90
46758;DHT22;32509;47.750;-3.396;2023-06-22T03:11:43;18.90;99.90
46758;DHT22;32509;47.750;-3.396;2023-06-22T03:14:08;18.90;99.90
46758;DHT22;32509;47.750;-3.396;2023-06-22T03:16:34;18.90;99.90
46758;DHT22;32509;47.750;-3.396;2023-06-22T03:19:00;18.90;99.90
46758;DHT22;32509;47.750;-3.396;2023-06-22T03:21:28;18.80;99.90
46758;DHT22;32509;47.750;-3.396;2023-06-22T03:23:54;18.80;99.90
46758;DHT22;32509;47.750;-3.396;2023-06-22T03:26:20;18.80;99.90
46758;DHT22;32509;47.750;-3.396;2023-06-22T03:28:46;18.80;99.90
46758;DHT22;32509;47.750;-3.396;2023-06-22T03:31:15;18.80;99.90
46758;DHT22;32509;47.750;-3.396;2023-06-22T03:33:41;18.80;99.90
46758;DHT22;32509;47.750;-3.396;2023-06-22T03:36:07;18.80;99.90
46758;DHT22;32509;47.750;-3.396;2023-06-22T03:38:32;18.70;99.90
46758;DHT22;32509;47.750;-3.396;2023-06-22T03:40:58;18.70;99.90
46758;DHT22;32509;47.750;-3.396;2023-06-22T03:43:27;18.70;99.90
46758;DHT22;32509;47.750;-3.396;2023-06-22T03:45:52;18.70;99.90
46758;DHT22;32509;47.750;-3.396;2023-06-22T03:48:18;18.70;99.90
46758;DHT22;32509;47.750;-3.396;2023-06-22T03:50:44;18.70;99.90
46758;DHT22;32509;47.750;-3.396;2023-06-22T03:53:10;18.60;99.90
46758;DHT22;32509;47.750;-3.396;2023-06-22T03:55:36;18.70;99.90
46758;DHT22;32509;47.750;-3.396;2023-06-22T03:58:02;18.70;99.90
46758;DHT22;32509;47.750;-3.396;2023-06-22T04:00:32;18.70;99.90
46758;DHT22;32509;47.750;-3.396;2023-06-22T04:02:58;18.70;99.90
46758;DHT22;32509;47.750;-3.396;2023-06-22T04:05:23;18.60;99.90
46758;DHT22;32509;47.750;-3.396;2023-06-22T04:07:50;18.60;99.90
46758;DHT22;32509;47.750;-3.396;2023-06-22T04:10:15;18.60;99.90
46758;DHT22;32509;47.750;-3.396;2023-06-22T04:12:41;18.60;99.90
46758;DHT22;32509;47.750;-3.396;2023-06-22T04:15:07;18.50;99.90
46758;DHT22;32509;47.750;-3.396;2023-06-22T04:17:33;18.60;99.90
46758;DHT22;32509;47.750;-3.396;2023-06-22T04:19:59;18.60;99.90
46758;DHT22;32509;47.750;-3.396;2023-06-22T04:22:24;18.60;99.90
46758;DHT22;32509;47.750;-3.396;2023-06-22T04:24:50;18.60;99.90
46758;DHT22;32509;47.750;-3.396;2023-06-22T04:27:21;18.50;99.90
46758;DHT22;32509;47.750;-3.396;2023-06-22T04:29:48;18.50;99.90
46758;DHT22;32509;47.750;-3.396;2023-06-22T04:32:17;18.50;99.90
46758;DHT22;32509;47.750;-3.396;2023-06-22T04:34:43;18.50;99.90
46758;DHT22;32509;47.750;-3.396;2023-06-22T04:37:09;18.50;99.90
46758;DHT22;32509;47.750;-3.396;2023-06-22T04:39:41;18.50;99.90
46758;DHT22;32509;47.750;-3.396;2023-06-22T04:42:07;18.50;99.90
46758;DHT22;32509;47.750;-3.396;2023-06-22T04:44:33;18.50;99.90
46758;DHT22;32509;47.750;-3.396;2023-06-22T04:47:00;18.50;99.90
46758;DHT22;32509;47.750;-3.396;2023-06-22T04:49:28;18.50;99.90
46758;DHT22;32509;47.750;-3.396;2023-06-22T04:52:05;18.50;99.90
46758;DHT22;32509;47.750;-3.396;2023-06-22T04:54:32;18.50;99.90
46758;DHT22;32509;47.750;-3.396;2023-06-22T04:57:06;18.50;99.90
46758;DHT22;32509;47.750;-3.396;2023-06-22T04:59:35;18.50;99.90
46758;DHT22;32509;47.750;-3.396;2023-06-22T05:02:02;18.50;99.90
46758;DHT22;32509;47.750;-3.396;2023-06-22T05:04:29;18.50;99.90
46758;DHT22;32509;47.750;-3.396;2023-06-22T05:06:59;18.50;99.90
46758;DHT22;32509;47.750;-3.396;2023-06-22T05:09:25;18.50;99.90
46758;DHT22;32509;47.750;-3.396;2023-06-22T05:11:51;18.50;99.90
46758;DHT22;32509;47.750;-3.396;2023-06-22T05:14:18;18.50;99.90
46758;DHT22;32509;47.750;-3.396;2023-06-22T05:16:44;18.40;99.90
46758;DHT22;32509;47.750;-3.396;2023-06-22T05:19:11;18.40;99.90
46758;DHT22;32509;47.750;-3.396;2023-06-22T05:21:37;18.40;99.90
46758;DHT22;32509;47.750;-3.396;2023-06-22T05:24:03;18.40;99.90
46758;DHT22;32509;47.750;-3.396;2023-06-22T05:26:30;18.40;99.90
46758;DHT22;32509;47.750;-3.396;2023-06-22T05:28:57;18.50;99.90
46758;DHT22;32509;47.750;-3.396;2023-06-22T05:31:23;18.40;99.90
46758;DHT22;32509;47.750;-3.396;2023-06-22T05:33:51;18.40;99.90
46758;DHT22;32509;47.750;-3.396;2023-06-22T05:36:17;18.40;99.90
46758;DHT22;32509;47.750;-3.396;2023-06-22T05:38:45;18.50;99.90
46758;DHT22;32509;47.750;-3.396;2023-06-22T05:41:11;18.50;99.90
46758;DHT22;32509;47.750;-3.396;2023-06-22T05:43:37;18.40;99.90
46758;DHT22;32509;47.750;-3.396;2023-06-22T05:46:04;18.40;99.90
46758;DHT22;32509;47.750;-3.396;2023-06-22T05:48:30;18.40;99.90
46758;DHT22;32509;47.750;-3.396;2023-06-22T05:50:55;18.30;99.90
46758;DHT22;32509;47.750;-3.396;2023-06-22T05:53:22;18.40;99.90
46758;DHT22;32509;47.750;-3.396;2023-06-22T05:55:47;18.40;99.90
46758;DHT22;32509;47.750;-3.396;2023-06-22T05:58:13;18.50;99.90
46758;DHT22;32509;47.750;-3.396;2023-06-22T06:00:40;18.50;99.90
46758;DHT22;32509;47.750;-3.396;2023-06-22T06:03:07;18.50;99.90
46758;DHT22;32509;47.750;-3.396;2023-06-22T06:05:33;18.50;99.90
46758;DHT22;32509;47.750;-3.396;2023-06-22T06:08:04;18.50;99.90
46758;DHT22;32509;47.750;-3.396;2023-06-22T06:10:31;18.50;99.90
46758;DHT22;32509;47.750;-3.396;2023-06-22T06:12:57;18.40;99.90
46758;DHT22;32509;47.750;-3.396;2023-06-22T06:15:23;18.40;99.90
46758;DHT22;32509;47.750;-3.396;2023-06-22T06:17:51;18.40;99.90
46758;DHT22;32509;47.750;-3.396;2023-06-22T06:20:22;18.50;99.90
46758;DHT22;32509;47.750;-3.396;2023-06-22T06:22:48;18.60;99.90
46758;DHT22;32509;47.750;-3.396;2023-06-22T06:25:14;18.60;99.90
46758;DHT22;32509;47.750;-3.396;2023-06-22T06:27:45;18.60;99.90
46758;DHT22;32509;47.750;-3.396;2023-06-22T06:30:14;18.60;99.90
46758;DHT22;32509;47.750;-3.396;2023-06-22T06:32:41;18.70;99.90
46758;DHT22;32509;47.750;-3.396;2023-06-22T06:35:07;18.70;99.90
46758;DHT22;32509;47.750;-3.396;2023-06-22T06:37:38;18.70;99.90
46758;DHT22;32509;47.750;-3.396;2023-06-22T06:40:08;18.70;99.90
46758;DHT22;32509;47.750;-3.396;2023-06-22T06:42:45;18.70;99.90
46758;DHT22;32509;47.750;-3.396;2023-06-22T06:45:21;18.80;99.90
46758;DHT22;32509;47.750;-3.396;2023-06-22T06:47:51;18.80;99.90
46758;DHT22;32509;47.750;-3.396;2023-06-22T06:50:18;18.80;99.90
46758;DHT22;32509;47.750;-3.396;2023-06-22T06:52:44;18.90;99.90
46758;DHT22;32509;47.750;-3.396;2023-06-22T06:55:10;18.90;99.90
46758;DHT22;32509;47.750;-3.396;2023-06-22T06:57:41;18.90;99.90
46758;DHT22;32509;47.750;-3.396;2023-06-22T07:00:12;18.90;99.90
46758;DHT22;32509;47.750;-3.396;2023-06-22T07:02:40;18.90;99.90
46758;DHT22;32509;47.750;-3.396;2023-06-22T07:05:07;19.00;99.90
46758;DHT22;32509;47.750;-3.396;2023-06-22T07:07:32;19.00;99.90
46758;DHT22;32509;47.750;-3.396;2023-06-22T07:09:59;19.00;99.90
46758;DHT22;32509;47.750;-3.396;2023-06-22T07:12:24;19.00;99.90
46758;DHT22;32509;47.750;-3.396;2023-06-22T07:14:52;19.10;99.90
46758;DHT22;32509;47.750;-3.396;2023-06-22T07:17:17;19.10;99.90
46758;DHT22;32509;47.750;-3.396;2023-06-22T07:19:43;19.20;99.90
46758;DHT22;32509;47.750;-3.396;2023-06-22T07:22:09;19.20;99.90
46758;DHT22;32509;47.750;-3.396;2023-06-22T07:24:34;19.20;99.90
46758;DHT22;32509;47.750;-3.396;2023-06-22T07:27:00;19.30;99.90
46758;DHT22;32509;47.750;-3.396;2023-06-22T07:29:27;19.30;99.90
46758;DHT22;32509;47.750;-3.396;2023-06-22T07:31:53;19.30;99.90
46758;DHT22;32509;47.750;-3.396;2023-06-22T07:34:21;19.30;99.90
46758;DHT22;32509;47.750;-3.396;2023-06-22T07:36:47;19.40;99.90
46758;DHT22;32509;47.750;-3.396;2023-06-22T07:39:13;19.40;99.90
46758;DHT22;32509;47.750;-3.396;2023-06-22T07:41:40;19.40;99.90
46758;DHT22;32509;47.750;-3.396;2023-06-22T07:44:08;19.40;99.90
46758;DHT22;32509;47.750;-3.396;2023-06-22T07:46:34;19.50;99.90
46758;DHT22;32509;47.750;-3.396;2023-06-22T07:49:00;19.60;99.90
46758;DHT22;32509;47.750;-3.396;2023-06-22T07:51:26;19.60;99.90
46758;DHT22;32509;47.750;-3.396;2023-06-22T07:53:52;19.60;99.90
46758;DHT22;32509;47.750;-3.396;2023-06-22T07:56:18;19.60;99.90
46758;DHT22;32509;47.750;-3.396;2023-06-22T07:58:47;19.70;99.90
46758;DHT22;32509;47.750;-3.396;2023-06-22T08:01:14;19.70;99.90
46758;DHT22;32509;47.750;-3.396;2023-06-22T08:03:40;19.70;99.90
46758;DHT22;32509;47.750;-3.396;2023-06-22T08:06:07;19.80;99.90
46758;DHT22;32509;47.750;-3.396;2023-06-22T08:08:37;19.80;99.90
46758;DHT22;32509;47.750;-3.396;2023-06-22T08:11:03;19.90;99.90
46758;DHT22;32509;47.750;-3.396;2023-06-22T08:13:29;19.90;99.90
46758;DHT22;32509;47.750;-3.396;2023-06-22T08:15:54;19.90;99.90
46758;DHT22;32509;47.750;-3.396;2023-06-22T08:18:20;20.00;99.90
46758;DHT22;32509;47.750;-3.396;2023-06-22T08:20:46;20.10;99.90
46758;DHT22;32509;47.750;-3.396;2023-06-22T08:23:12;20.10;99.90
46758;DHT22;32509;47.750;-3.396;2023-06-22T08:25:37;20.10;99.90
46758;DHT22;32509;47.750;-3.396;2023-06-22T08:28:04;20.10;99.90
46758;DHT22;32509;47.750;-3.396;2023-06-22T08:30:30;20.20;99.90
46758;DHT22;32509;47.750;-3.396;2023-06-22T08:32:56;20.30;99.90
46758;DHT22;32509;47.750;-3.396;2023-06-22T08:35:23;20.30;99.90
46758;DHT22;32509;47.750;-3.396;2023-06-22T08:37:49;20.30;99.90
46758;DHT22;32509;47.750;-3.396;2023-06-22T08:40:18;20.30;99.90
46758;DHT22;32509;47.750;-3.396;2023-06-22T08:42:45;20.40;99.90
46758;DHT22;32509;47.750;-3.396;2023-06-22T08:45:12;20.40;99.90
46758;DHT22;32509;47.750;-3.396;2023-06-22T08:47:38;20.50;99.90
46758;DHT22;32509;47.750;-3.396;2023-06-22T08:50:05;20.50;99.90
46758;DHT22;32509;47.750;-3.396;2023-06-22T08:52:32;20.50;99.90
46758;DHT22;32509;47.750;-3.396;2023-06-22T08:54:57;20.60;99.90
46758;DHT22;32509;47.750;-3.396;2023-06-22T08:57:26;20.60;99.90
46758;DHT22;32509;47.750;-3.396;2023-06-22T08:59:52;20.70;99.90
46758;DHT22;32509;47.750;-3.396;2023-06-22T09:02:19;20.70;99.90
46758;DHT22;32509;47.750;-3.396;2023-06-22T09:04:46;20.70;99.90
46758;DHT22;32509;47.750;-3.396;2023-06-22T09:07:14;20.80;99.90
46758;DHT22;32509;47.750;-3.396;2023-06-22T09:09:40;20.90;99.90
46758;DHT22;32509;47.750;-3.396;2023-06-22T09:12:06;20.80;99.90
46758;DHT22;32509;47.750;-3.396;2023-06-22T09:14:32;20.90;99.90
46758;DHT22;32509;47.750;-3.396;2023-06-22T09:16:57;20.90;99.90
46758;DHT22;32509;47.750;-3.396;2023-06-22T09:19:23;20.90;99.90
46758;DHT22;32509;47.750;-3.396;2023-06-22T09:21:49;21.00;99.90
46758;DHT22;32509;47.750;-3.396;2023-06-22T09:24:15;21.10;99.90
46758;DHT22;32509;47.750;-3.396;2023-06-22T09:26:40;21.10;99.90
46758;DHT22;32509;47.750;-3.396;2023-06-22T09:29:06;21.20;99.90
46758;DHT22;32509;47.750;-3.396;2023-06-22T09:31:32;21.20;99.90
46758;DHT22;32509;47.750;-3.396;2023-06-22T09:33:57;21.30;99.90
46758;DHT22;32509;47.750;-3.396;2023-06-22T09:36:23;21.30;99.90
46758;DHT22;32509;47.750;-3.396;2023-06-22T09:38:50;21.30;99.90
46758;DHT22;32509;47.750;-3.396;2023-06-22T09:41:21;21.40;99.90
46758;DHT22;32509;47.750;-3.396;2023-06-22T09:43:47;21.40;99.90
46758;DHT22;32509;47.750;-3.396;2023-06-22T09:46:15;21.50;99.90
46758;DHT22;32509;47.750;-3.396;2023-06-22T09:48:41;21.50;99.90
46758;DHT22;32509;47.750;-3.396;2023-06-22T09:51:07;21.50;99.90
46758;DHT22;32509;47.750;-3.396;2023-06-22T09:53:32;21.60;99.90
46758;DHT22;32509;47.750;-3.396;2023-06-22T09:56:00;21.60;99.90
46758;DHT22;32509;47.750;-3.396;2023-06-22T09:58:27;21.60;99.90
46758;DHT22;32509;47.750;-3.396;2023-06-22T10:00:53;21.60;99.90
46758;DHT22;32509;47.750;-3.396;2023-06-22T10:03:20;21.70;99.90
46758;DHT22;32509;47.750;-3.396;2023-06-22T10:05:47;21.70;99.90
46758;DHT22;32509;47.750;-3.396;2023-06-22T10:08:13;21.70;99.90
46758;DHT22;32509;47.750;-3.396;2023-06-22T10:10:39;21.80;99.90
46758;DHT22;32509;47.750;-3.396;2023-06-22T10:13:09;21.80;99.90
46758;DHT22;32509;47.750;-3.396;2023-06-22T10:15:38;21.90;99.90
46758;DHT22;32509;47.750;-3.396;2023-06-22T10:18:04;22.00;99.90
46758;DHT22;32509;47.750;-3.396;2023-06-22T10:20:30;22.00;99.90
46758;DHT22;32509;47.750;-3.396;2023-06-22T10:22:56;22.10;99.90
46758;DHT22;32509;47.750;-3.396;2023-06-22T10:25:22;22.10;99.90
46758;DHT22;32509;47.750;-3.396;2023-06-22T10:27:48;22.10;99.90
46758;DHT22;32509;47.750;-3.396;2023-06-22T10:30:14;22.20;99.90
46758;DHT22;32509;47.750;-3.396;2023-06-22T10:32:40;22.30;99.90
46758;DHT22;32509;47.750;-3.396;2023-06-22T10:35:07;22.30;99.90
46758;DHT22;32509;47.750;-3.396;2023-06-22T10:37:32;22.30;99.90
46758;DHT22;32509;47.750;-3.396;2023-06-22T10:39:58;22.40;99.90
46758;DHT22;32509;47.750;-3.396;2023-06-22T10:42:24;22.40;99.90
46758;DHT22;32509;47.750;-3.396;2023-06-22T10:44:50;22.50;99.90
46758;DHT22;32509;47.750;-3.396;2023-06-22T10:47:15;22.50;99.90
46758;DHT22;32509;47.750;-3.396;2023-06-22T10:49:41;22.60;99.90
46758;DHT22;32509;47.750;-3.396;2023-06-22T10:52:08;22.60;99.90
46758;DHT22;32509;47.750;-3.396;2023-06-22T10:54:35;22.60;99.90
46758;DHT22;32509;47.750;-3.396;2023-06-22T10:57:02;22.70;99.90
46758;DHT22;32509;47.750;-3.396;2023-06-22T10:59:28;22.70;99.90
46758;DHT22;32509;47.750;-3.396;2023-06-22T11:01:58;22.70;99.90
46758;DHT22;32509;47.750;-3.396;2023-06-22T11:04:24;22.70;99.90
46758;DHT22;32509;47.750;-3.396;2023-06-22T11:06:50;22.70;99.90
46758;DHT22;32509;47.750;-3.396;2023-06-22T11:09:16;22.70;99.90
46758;DHT22;32509;47.750;-3.396;2023-06-22T11:11:49;22.70;99.90
46758;DHT22;32509;47.750;-3.396;2023-06-22T11:14:16;22.70;99.90
46758;DHT22;32509;47.750;-3.396;2023-06-22T11:16:41;22.70;99.90
46758;DHT22;32509;47.750;-3.396;2023-06-22T11:19:07;22.80;99.90
46758;DHT22;32509;47.750;-3.396;2023-06-22T11:21:33;22.80;99.90
46758;DHT22;32509;47.750;-3.396;2023-06-22T11:23:59;22.80;99.90
46758;DHT22;32509;47.750;-3.396;2023-06-22T11:26:26;22.80;99.90
46758;DHT22;32509;47.750;-3.396;2023-06-22T11:28:55;22.70;99.90
46758;DHT22;32509;47.750;-3.396;2023-06-22T11:31:21;22.80;99.90
46758;DHT22;32509;47.750;-3.396;2023-06-22T11:33:47;22.90;99.90
46758;DHT22;32509;47.750;-3.396;2023-06-22T11:36:14;22.90;99.90
46758;DHT22;32509;47.750;-3.396;2023-06-22T11:38:40;22.90;99.90
46758;DHT22;32509;47.750;-3.396;2023-06-22T11:41:06;22.90;99.90
46758;DHT22;32509;47.750;-3.396;2023-06-22T11:43:33;22.90;99.90
46758;DHT22;32509;47.750;-3.396;2023-06-22T11:46:00;23.00;99.90
46758;DHT22;32509;47.750;-3.396;2023-06-22T11:48:26;23.10;99.90
46758;DHT22;32509;47.750;-3.396;2023-06-22T11:50:52;23.00;99.90
46758;DHT22;32509;47.750;-3.396;2023-06-22T11:53:18;23.10;99.90
46758;DHT22;32509;47.750;-3.396;2023-06-22T11:55:44;23.00;99.90
46758;DHT22;32509;47.750;-3.396;2023-06-22T11:58:10;23.10;99.90
46758;DHT22;32509;47.750;-3.396;2023-06-22T12:00:37;23.10;99.90
46758;DHT22;32509;47.750;-3.396;2023-06-22T12:03:03;23.10;99.90
46758;DHT22;32509;47.750;-3.396;2023-06-22T12:05:29;23.10;99.90
46758;DHT22;32509;47.750;-3.396;2023-06-22T12:07:54;23.20;99.90
46758;DHT22;32509;47.750;-3.396;2023-06-22T12:10:22;23.10;99.90
46758;DHT22;32509;47.750;-3.396;2023-06-22T12:12:48;23.20;99.90
46758;DHT22;32509;47.750;-3.396;2023-06-22T12:15:14;23.10;99.90
46758;DHT22;32509;47.750;-3.396;2023-06-22T12:17:40;23.10;99.90
46758;DHT22;32509;47.750;-3.396;2023-06-22T12:20:06;23.10;99.90
46758;DHT22;32509;47.750;-3.396;2023-06-22T12:22:33;23.10;99.90
46758;DHT22;32509;47.750;-3.396;2023-06-22T12:24:59;23.20;99.90
46758;DHT22;32509;47.750;-3.396;2023-06-22T12:27:25;23.20;99.90
46758;DHT22;32509;47.750;-3.396;2023-06-22T12:29:51;23.20;99.90
46758;DHT22;32509;47.750;-3.396;2023-06-22T12:32:17;23.10;99.90
46758;DHT22;32509;47.750;-3.396;2023-06-22T12:34:44;23.20;99.90
46758;DHT22;32509;47.750;-3.396;2023-06-22T12:37:10;23.20;99.90
46758;DHT22;32509;47.750;-3.396;2023-06-22T12:39:36;23.20;99.90
46758;DHT22;32509;47.750;-3.396;2023-06-22T12:42:02;23.20;99.90
46758;DHT22;32509;47.750;-3.396;2023-06-22T12:44:28;23.20;99.90
46758;DHT22;32509;47.750;-3.396;2023-06-22T12:46:54;23.20;99.90
46758;DHT22;32509;47.750;-3.396;2023-06-22T12:49:19;23.20;99.90
46758;DHT22;32509;47.750;-3.396;2023-06-22T12:51:45;23.10;99.90
46758;DHT22;32509;47.750;-3.396;2023-06-22T12:54:11;23.10;99.90
46758;DHT22;32509;47.750;-3.396;2023-06-22T12:56:38;23.20;99.90
46758;DHT22;32509;47.750;-3.396;2023-06-22T12:59:04;23.00;99.90
46758;DHT22;32509;47.750;-3.396;2023-06-22T13:01:30;23.00;99.90
46758;DHT22;32509;47.750;-3.396;2023-06-22T13:04:00;22.90;99.90
46758;DHT22;32509;47.750;-3.396;2023-06-22T13:06:26;22.90;99.90
46758;DHT22;32509;47.750;-3.396;2023-06-22T13:08:52;22.90;99.90
46758;DHT22;32509;47.750;-3.396;2023-06-22T13:11:18;22.90;99.90
46758;DHT22;32509;47.750;-3.396;2023-06-22T13:13:45;22.90;99.90
46758;DHT22;32509;47.750;-3.396;2023-06-22T13:16:10;22.80;99.90
46758;DHT22;32509;47.750;-3.396;2023-06-22T13:18:36;22.80;99.90
46758;DHT22;32509;47.750;-3.396;2023-06-22T13:21:03;22.70;99.90
46758;DHT22;32509;47.750;-3.396;2023-06-22T13:23:28;22.70;99.90
46758;DHT22;32509;47.750;-3.396;2023-06-22T13:25:54;22.60;99.90
46758;DHT22;32509;47.750;-3.396;2023-06-22T13:28:20;22.60;99.90
46758;DHT22;32509;47.750;-3.396;2023-06-22T13:30:47;22.60;99.90
46758;DHT22;32509;47.750;-3.396;2023-06-22T13:33:16;22.60;99.90
46758;DHT22;32509;47.750;-3.396;2023-06-22T13:35:42;22.70;99.90
46758;DHT22;32509;47.750;-3.396;2023-06-22T13:38:09;22.70;99.90
46758;DHT22;32509;47.750;-3.396;2023-06-22T13:40:35;22.70;99.90
46758;DHT22;32509;47.750;-3.396;2023-06-22T13:43:01;22.70;99.90
46758;DHT22;32509;47.750;-3.396;2023-06-22T13:45:27;22.70;99.90
46758;DHT22;32509;47.750;-3.396;2023-06-22T13:47:52;22.70;99.90
46758;DHT22;32509;47.750;-3.396;2023-06-22T13:50:18;22.70;99.90
46758;DHT22;32509;47.750;-3.396;2023-06-22T13:52:44;22.60;99.90
46758;DHT22;32509;47.750;-3.396;2023-06-22T13:55:10;22.80;99.90
46758;DHT22;32509;47.750;-3.396;2023-06-22T13:57:36;22.70;99.90
46758;DHT22;32509;47.750;-3.396;2023-06-22T14:00:04;22.70;99.90
46758;DHT22;32509;47.750;-3.396;2023-06-22T14:02:31;22.70;99.90
46758;DHT22;32509;47.750;-3.396;2023-06-22T14:04:57;22.80;99.90
46758;DHT22;32509;47.750;-3.396;2023-06-22T14:07:22;22.60;99.90
46758;DHT22;32509;47.750;-3.396;2023-06-22T14:09:50;22.60;99.90
46758;DHT22;32509;47.750;-3.396;2023-06-22T14:12:16;22.60;99.90
46758;DHT22;32509;47.750;-3.396;2023-06-22T14:14:43;22.60;99.90
46758;DHT22;32509;47.750;-3.396;2023-06-22T14:17:09;22.60;99.90
46758;DHT22;32509;47.750;-3.396;2023-06-22T14:19:35;22.60;99.90
46758;DHT22;32509;47.750;-3.396;2023-06-22T14:22:02;22.60;99.90
46758;DHT22;32509;47.750;-3.396;2023-06-22T14:24:28;22.50;99.90
46758;DHT22;32509;47.750;-3.396;2023-06-22T14:26:54;22.60;99.90
46758;DHT22;32509;47.750;-3.396;2023-06-22T14:29:21;22.50;99.90
46758;DHT22;32509;47.750;-3.396;2023-06-22T14:31:47;22.50;99.90
46758;DHT22;32509;47.750;-3.396;2023-06-22T14:34:13;22.50;99.90
46758;DHT22;32509;47.750;-3.396;2023-06-22T14:36:39;22.40;99.90
46758;DHT22;32509;47.750;-3.396;2023-06-22T14:39:05;22.40;99.90
46758;DHT22;32509;47.750;-3.396;2023-06-22T14:41:31;22.30;99.90
46758;DHT22;32509;47.750;-3.396;2023-06-22T14:43:57;22.30;99.90
46758;DHT22;32509;47.750;-3.396;2023-06-22T14:46:23;22.20;99.90
46758;DHT22;32509;47.750;-3.396;2023-06-22T14:48:48;22.20;99.90
46758;DHT22;32509;47.750;-3.396;2023-06-22T14:51:14;22.30;99.90
46758;DHT22;32509;47.750;-3.396;2023-06-22T14:53:41;22.20;99.90
46758;DHT22;32509;47.750;-3.396;2023-06-22T14:56:07;22.20;99.90
46758;DHT22;32509;47.750;-3.396;2023-06-22T14:58:33;22.10;99.90
46758;DHT22;32509;47.750;-3.396;2023-06-22T15:01:00;22.00;99.90
46758;DHT22;32509;47.750;-3.396;2023-06-22T15:03:26;22.10;99.90
46758;DHT22;32509;47.750;-3.396;2023-06-22T15:05:54;22.20;99.90
46758;DHT22;32509;47.750;-3.396;2023-06-22T15:08:21;22.20;99.90
46758;DHT22;32509;47.750;-3.396;2023-06-22T15:10:46;22.20;99.90
46758;DHT22;32509;47.750;-3.396;2023-06-22T15:13:13;22.20;99.90
46758;DHT22;32509;47.750;-3.396;2023-06-22T15:15:39;22.20;99.90
46758;DHT22;32509;47.750;-3.396;2023-06-22T15:18:05;22.30;99.90
46758;DHT22;32509;47.750;-3.396;2023-06-22T15:20:31;22.20;99.90
46758;DHT22;32509;47.750;-3.396;2023-06-22T15:22:57;22.20;99.90
46758;DHT22;32509;47.750;-3.396;2023-06-22T15:25:23;22.20;99.90